Hovedside
METAR-TAF:

METAR-TAF

Lufthavner :

Tarawa, Kiribati

breddegrad: 01-21N, lengdegrad: 172-55E, høyde over havet: 2 m

Gjeldene værobservasjon

Denne rapporten ble laget for 2 timer og 1 minutter siden, klokken 05:00 UTC
Vind 7 kt fra Øst
Temperatur 29°C
Luftfuktighet 70%
Trykk 1006 hPa
Sikt 10 km eller mer
Få skyer i en høyde av 2000 ft
Brutte skyer i en høyde av 30000 ft

METAR: NGTA 250500Z 10007KT 9999 FEW020 BKN300 29/23 Q1006

Tid: 21:01 (07:01 UTC)

Varsel

Denne rapporten ble laget for 1 time og 56 minutter siden, klokken 05:05 UTC
Varsel gyldig fra 25. klokken 06 UTC til 26. klokken 06 UTC
Vind 10 kt fra Øst
Sikt 10 km eller mer
Få skyer i en høyde av 2000 ft

TAF: NGTA 250505Z 2506/2606 10010KT 9999 FEW020

Værobservasjoner og værvarsel for over 4000 flyplasser (METAR- og TAF-rapporter).

Tilgjengelige stasjoner er representert av de røde og gule prikkene på kartet.

Hold musepekeren over prikken for å se navnet på stasjonen.

Klikk så for å se værobservasjoner og -varsler.

For å forandre kartet kan du klikke på den grønne knappen med svart kryss for å zoome inn, på den grønne knappen med strek for å zoome ut, eller på de grønne pilene for å se tilstøtende kart.


METAR-TAF: